createdAt,value
2022-09-28T00:04:06.634Z,98531.16
2022-09-28T00:09:08.358Z,98525.44
2022-09-28T00:14:10.814Z,98517.91
2022-09-28T00:19:13.251Z,98503.31
2022-09-28T00:24:15.276Z,98495.06
2022-09-28T00:29:19.667Z,98491.94
2022-09-28T00:34:21.095Z,98491.88
2022-09-28T00:39:22.702Z,98482.13
2022-09-28T00:44:25.219Z,98489.06
2022-09-28T00:49:39.015Z,98483.22
2022-09-28T00:54:43.211Z,98478.78
2022-09-28T00:59:44.722Z,98470.88
2022-09-28T01:04:47.169Z,98461.25
2022-09-28T01:09:49.644Z,98461.63
2022-09-28T01:14:52.723Z,98445.97
2022-09-28T01:20:02.504Z,98450.03
2022-09-28T01:25:32.520Z,98446.28
2022-09-28T01:30:43.512Z,98449.81
2022-09-28T01:35:53.075Z,98440.34
2022-09-28T01:40:58.002Z,98437.47
2022-09-28T01:46:11.411Z,98422.03
2022-09-28T01:51:32.087Z,98428.66
2022-09-28T01:56:39.506Z,98432.94
2022-09-28T02:01:46.847Z,98429.94
2022-09-28T02:07:02.148Z,98435.53
2022-09-28T02:12:12.630Z,98431.31
2022-09-28T02:17:14.082Z,98434.75
2022-09-28T02:22:37.174Z,98435.53
2022-09-28T02:28:05.614Z,98430.41
2022-09-28T02:33:19.781Z,98422.38
2022-09-28T02:38:21.222Z,98425.38
2022-09-28T02:43:32.198Z,98430.25
2022-09-28T02:49:21.519Z,98432.56
2022-09-28T02:54:38.548Z,98433.09
2022-09-28T03:00:00.790Z,98442.78
2022-09-28T03:05:20.525Z,98435.41
2022-09-28T03:10:37.119Z,98433.94
2022-09-28T03:15:38.681Z,98432.38
2022-09-28T03:20:40.199Z,98434.50
2022-09-28T03:25:41.746Z,98431.09
2022-09-28T03:30:43.219Z,98436.88
2022-09-28T03:35:47.595Z,98440.19
2022-09-28T03:40:57.259Z,98434.94
2022-09-28T03:46:00.602Z,98428.66
2022-09-28T03:51:04.927Z,98427.38
2022-09-28T03:56:09.056Z,98437.63
2022-09-28T04:01:16.848Z,98427.56
2022-09-28T04:06:19.220Z,98435.34
2022-09-28T04:11:20.731Z,98435.44
2022-09-28T04:16:22.257Z,98429.88
2022-09-28T04:21:24.008Z,98435.28
2022-09-28T04:26:27.192Z,98433.91
2022-09-28T04:31:29.163Z,98443.22
2022-09-28T04:36:30.609Z,98440.13
2022-09-28T04:41:32.030Z,98442.03
2022-09-28T04:46:34.125Z,98458.91
2022-09-28T04:51:35.973Z,98466.19
2022-09-28T04:56:37.642Z,98463.34
2022-09-28T05:01:39.321Z,98471.13
2022-09-28T05:06:41.055Z,98476.69
2022-09-28T05:11:42.493Z,98480.72
2022-09-28T05:16:44.563Z,98478.06
2022-09-28T05:21:46.722Z,98478.06
2022-09-28T05:26:48.102Z,98478.06
2022-09-28T05:31:49.702Z,98482.22
2022-09-28T05:36:51.176Z,98487.25
2022-09-28T05:41:52.676Z,98480.38
2022-09-28T05:46:54.129Z,98478.06
2022-09-28T05:51:55.635Z,98482.88
2022-09-28T05:56:57.206Z,98478.28
2022-09-28T06:01:58.762Z,98492.28
2022-09-28T06:07:00.391Z,98491.78
2022-09-28T06:12:01.899Z,98496.66
2022-09-28T06:17:03.430Z,98505.13
2022-09-28T06:22:05.032Z,98490.34
2022-09-28T06:27:06.520Z,98487.34
2022-09-28T06:32:08.169Z,98486.81
2022-09-28T06:37:09.871Z,98502.69
2022-09-28T06:42:11.354Z,98515.06
2022-09-28T06:47:12.793Z,98516.81
2022-09-28T06:52:14.235Z,98516.66
2022-09-28T06:57:15.723Z,98525.47
2022-09-28T07:02:17.166Z,98528.56
2022-09-28T07:07:18.721Z,98528.50
2022-09-28T07:12:20.227Z,98533.00
2022-09-28T07:17:22.710Z,98537.06
2022-09-28T07:22:39.410Z,98550.06
2022-09-28T07:27:43.151Z,98561.31
2022-09-28T07:32:47.689Z,98578.91
2022-09-28T07:37:49.247Z,98580.06
2022-09-28T07:42:50.784Z,98583.09
2022-09-28T07:47:55.494Z,98591.19
2022-09-28T07:52:57.918Z,98593.31
2022-09-28T07:57:59.934Z,98598.56
2022-09-28T08:03:02.915Z,98602.09
2022-09-28T08:08:04.759Z,98608.19
2022-09-28T08:13:08.585Z,98611.22
2022-09-28T08:18:10.580Z,98614.28
2022-09-28T08:23:11.992Z,98624.94
2022-09-28T08:28:13.593Z,98618.31
2022-09-28T08:33:16.922Z,98628.63
2022-09-28T08:38:18.372Z,98632.84
2022-09-28T08:43:44.262Z,98641.06
2022-09-28T08:49:13.334Z,98631.38
2022-09-28T08:54:36.344Z,98636.47
2022-09-28T08:59:49.802Z,98642.09
2022-09-28T09:04:52.238Z,98649.34
2022-09-28T09:10:05.771Z,98650.69
2022-09-28T09:15:09.933Z,98647.88
2022-09-28T09:20:19.030Z,98655.28
2022-09-28T09:25:38.374Z,98658.19
2022-09-28T09:31:12.134Z,98659.53
2022-09-28T09:36:52.934Z,98664.50
2022-09-28T09:42:12.257Z,98659.75
2022-09-28T09:47:21.404Z,98661.44
2022-09-28T09:52:45.599Z,98656.38
2022-09-28T09:58:09.113Z,98660.25
2022-09-28T10:03:32.837Z,98655.03
2022-09-28T10:09:02.453Z,98658.03
2022-09-28T10:14:04.289Z,98665.91
2022-09-28T10:19:05.685Z,98663.28
2022-09-28T10:24:41.368Z,98665.41
2022-09-28T10:30:02.722Z,98674.28
2022-09-28T10:35:19.143Z,98678.84
2022-09-28T10:40:46.469Z,98686.47
2022-09-28T10:45:49.624Z,98685.47
2022-09-28T10:51:04.847Z,98696.28
2022-09-28T10:56:18.519Z,98697.75
2022-09-28T11:01:25.445Z,98699.88
2022-09-28T11:06:31.427Z,98700.25
2022-09-28T11:11:41.319Z,98704.03
2022-09-28T11:16:44.194Z,98715.88
2022-09-28T11:21:45.787Z,98705.84
2022-09-28T11:26:50.784Z,98707.28
2022-09-28T11:31:52.825Z,98700.69
2022-09-28T11:37:03.642Z,98696.47
2022-09-28T11:42:18.389Z,98701.00
2022-09-28T11:47:52.732Z,98699.81
2022-09-28T11:52:59.897Z,98690.19
2022-09-28T11:58:26.153Z,98691.63
2022-09-28T12:03:46.591Z,98699.47
2022-09-28T12:08:58.224Z,98688.75
2022-09-28T12:14:04.028Z,98692.22
2022-09-28T12:19:14.234Z,98695.16
2022-09-28T12:24:25.893Z,98687.53
2022-09-28T12:30:01.835Z,98689.47
2022-09-28T12:35:10.541Z,98680.28
2022-09-28T12:40:18.192Z,98687.63
2022-09-28T12:45:25.455Z,98684.69
2022-09-28T12:51:00.702Z,98686.63
2022-09-28T12:56:04.889Z,98689.56
2022-09-28T13:01:15.484Z,98689.22
2022-09-28T13:06:37.546Z,98690.09
2022-09-28T13:12:13.510Z,98693.00
2022-09-28T13:17:41.580Z,98689.50
2022-09-28T13:22:50.225Z,98688.97
2022-09-28T13:27:58.474Z,98690.09
2022-09-28T13:33:03.272Z,98688.28
2022-09-28T13:38:17.089Z,98681.59
2022-09-28T13:43:31.631Z,98684.50
2022-09-28T13:48:51.436Z,98687.34
2022-09-28T13:54:10.388Z,98691.06
2022-09-28T13:59:29.075Z,98686.72
2022-09-28T14:05:07.988Z,98694.16
2022-09-28T14:10:22.262Z,98688.00
2022-09-28T14:15:30.043Z,98690.97
2022-09-28T14:20:31.573Z,98695.56
2022-09-28T14:25:39.164Z,98700.34
2022-09-28T14:30:43.722Z,98691.91
2022-09-28T14:35:53.823Z,98694.75
2022-09-28T14:41:23.946Z,98703.13
2022-09-28T14:46:25.526Z,98702.13
2022-09-28T14:51:27.116Z,98701.31
2022-09-28T14:56:33.259Z,98702.75
2022-09-28T15:01:35.835Z,98708.00
2022-09-28T15:06:45.046Z,98712.50
2022-09-28T15:11:46.504Z,98710.66
2022-09-28T15:16:48.031Z,98708.84
2022-09-28T15:21:50.389Z,98708.69
2022-09-28T15:26:51.948Z,98713.38
2022-09-28T15:31:54.594Z,98708.84
2022-09-28T15:36:56.327Z,98717.31
2022-09-28T15:41:58.357Z,98703.31
2022-09-28T15:47:12.605Z,98716.66
2022-09-28T15:52:31.914Z,98718.81
2022-09-28T15:57:40.006Z,98716.84
2022-09-28T16:03:03.011Z,98717.09
2022-09-28T16:08:05.930Z,98715.97
2022-09-28T16:13:15.670Z,98715.25
2022-09-28T16:18:21.259Z,98710.72
2022-09-28T16:23:29.520Z,98717.47
2022-09-28T16:28:34.709Z,98715.44
2022-09-28T16:33:43.281Z,98716.66
2022-09-28T16:38:45.383Z,98722.75
2022-09-28T16:43:47.675Z,98723.31
2022-09-28T16:48:50.616Z,98743.22
2022-09-28T16:53:52.064Z,98736.28
2022-09-28T16:58:54.411Z,98747.91
2022-09-28T17:03:55.821Z,98750.56
2022-09-28T17:08:57.395Z,98753.09
2022-09-28T17:13:58.844Z,98760.66
2022-09-28T17:19:00.266Z,98763.41
2022-09-28T17:24:01.715Z,98768.06
2022-09-28T17:29:03.236Z,98772.03
2022-09-28T17:34:04.724Z,98773.91
2022-09-28T17:39:06.683Z,98778.06
2022-09-28T17:44:08.304Z,98776.97
2022-09-28T17:49:11.458Z,98786.91
2022-09-28T17:54:13.051Z,98791.84
2022-09-28T17:59:17.486Z,98790.94
2022-09-28T18:04:47.103Z,98791.25
2022-09-28T18:09:40.469Z,98793.66
2022-09-28T18:14:41.844Z,98786.34
2022-09-28T18:19:43.238Z,98798.09
2022-09-28T18:24:44.761Z,98804.56
2022-09-28T18:29:46.155Z,98814.16
2022-09-28T18:34:47.867Z,98814.69
2022-09-28T18:39:49.499Z,98824.63
2022-09-28T18:44:50.983Z,98826.31
2022-09-28T18:49:52.505Z,98834.75
2022-09-28T18:54:55.205Z,98836.66
2022-09-28T18:59:56.791Z,98845.06
2022-09-28T19:04:58.255Z,98851.91
2022-09-28T19:09:59.719Z,98853.41
2022-09-28T19:15:01.497Z,98853.00
2022-09-28T19:20:03.287Z,98856.88
2022-09-28T19:25:05.145Z,98864.75
2022-09-28T19:30:07.549Z,98872.78
2022-09-28T19:35:08.959Z,98888.41
2022-09-28T19:40:10.466Z,98891.34
2022-09-28T19:45:11.966Z,98894.63
2022-09-28T19:50:13.374Z,98901.25
2022-09-28T19:55:14.982Z,98900.22
2022-09-28T20:00:16.537Z,98911.19
2022-09-28T20:05:18.051Z,98912.56
2022-09-28T20:10:19.684Z,98917.78
2022-09-28T20:15:21.151Z,98912.94
2022-09-28T20:20:22.650Z,98916.31
2022-09-28T20:25:24.186Z,98907.63
2022-09-28T20:30:25.683Z,98915.28
2022-09-28T20:35:33.122Z,98913.56
2022-09-28T20:40:38.363Z,98914.91
2022-09-28T20:45:40.018Z,98922.22
2022-09-28T20:50:42.466Z,98914.91
2022-09-28T20:55:44.098Z,98917.22
2022-09-28T21:00:45.764Z,98914.75
2022-09-28T21:05:50.722Z,98911.16
2022-09-28T21:10:53.272Z,98899.66
2022-09-28T21:15:54.906Z,98920.09
2022-09-28T21:20:56.804Z,98921.00
2022-09-28T21:26:12.515Z,98923.63
2022-09-28T21:31:14.255Z,98922.28
2022-09-28T21:36:15.732Z,98921.09
2022-09-28T21:41:17.153Z,98923.50
2022-09-28T21:46:18.801Z,98923.03
2022-09-28T21:51:20.784Z,98923.50
2022-09-28T21:56:22.748Z,98918.22
2022-09-28T22:01:25.154Z,98918.03
2022-09-28T22:06:27.243Z,98913.03
2022-09-28T22:11:29.095Z,98919.31
2022-09-28T22:16:31.707Z,98925.31
2022-09-28T22:21:33.476Z,98933.03
2022-09-28T22:26:36.799Z,98934.72
2022-09-28T22:31:40.256Z,98935.13
2022-09-28T22:36:41.891Z,98939.38
2022-09-28T22:41:46.353Z,98932.38
2022-09-28T22:46:47.800Z,98945.78
2022-09-28T22:51:49.507Z,98935.03
2022-09-28T22:56:51.014Z,98937.44
2022-09-28T23:01:52.528Z,98942.38
2022-09-28T23:06:53.965Z,98937.63
2022-09-28T23:11:55.421Z,98933.28
2022-09-28T23:16:56.922Z,98938.06
2022-09-28T23:21:58.413Z,98935.47
2022-09-28T23:26:59.925Z,98943.72
2022-09-28T23:32:01.913Z,98942.72
2022-09-28T23:37:03.333Z,98941.22
2022-09-28T23:42:04.861Z,98941.38
2022-09-28T23:47:06.309Z,98944.28
2022-09-28T23:52:07.774Z,98932.09
2022-09-28T23:57:09.229Z,98936.78
